Time;durP1;ratioP1;P1;durP2;ratioP2;P2;SDS_P1;SDS_P2;PMS_P1;PMS_P2;Temp;Humidity;BMP_temperature;BMP_pressure;BME280_temperature;BME280_humidity;BME280_pressure;Samples;Min_cycle;Max_cycle;Signal;HPM_P1;HPM_P2
2021/10/13 00:00:55;;;;;;;7.33;4.47;;;9.30;91.20;;;;;;5055161;28;20453;-76
2021/10/13 00:03:22;;;;;;;11.97;4.10;;;9.30;91.20;;;;;;5055624;28;20469;-76
2021/10/13 00:05:49;;;;;;;5.10;3.70;;;9.30;91.20;;;;;;5054895;28;20449;-76
2021/10/13 00:08:18;;;;;;;5.30;4.33;;;9.30;91.40;;;;;;5055043;28;20805;-76
2021/10/13 00:10:46;;;;;;;8.70;4.17;;;9.30;91.10;;;;;;5054403;28;21018;-76
2021/10/13 00:13:13;;;;;;;6.53;4.23;;;9.20;91.10;;;;;;5054696;28;20501;-76
2021/10/13 00:15:40;;;;;;;7.93;4.27;;;9.20;91.10;;;;;;5054670;28;20453;-76
2021/10/13 00:18:07;;;;;;;10.10;3.93;;;9.20;91.20;;;;;;5054671;28;20472;-76
2021/10/13 00:20:34;;;;;;;7.83;3.80;;;9.20;91.20;;;;;;5054234;28;20445;-76
2021/10/13 00:23:01;;;;;;;8.00;4.20;;;9.20;91.40;;;;;;5054350;28;20885;-76
2021/10/13 00:25:29;;;;;;;10.20;4.17;;;9.20;91.40;;;;;;5054470;28;20819;-76
2021/10/13 00:27:56;;;;;;;4.37;3.60;;;9.20;91.30;;;;;;5054453;28;20454;-76
2021/10/13 00:30:22;;;;;;;5.30;4.03;;;9.20;91.30;;;;;;5054325;28;20477;-76
2021/10/13 00:32:49;;;;;;;8.27;3.87;;;9.20;91.20;;;;;;5053924;28;20457;-76
2021/10/13 00:35:16;;;;;;;5.10;3.50;;;9.20;91.20;;;;;;5054351;28;20448;-75
2021/10/13 00:37:42;;;;;;;6.87;3.60;;;9.20;91.30;;;;;;5054239;28;20448;-75
2021/10/13 00:40:10;;;;;;;5.80;3.97;;;9.10;91.30;;;;;;5054238;28;20781;-76
2021/10/13 00:42:38;;;;;;;4.90;3.13;;;9.10;91.50;;;;;;5054066;28;20469;-76
2021/10/13 00:45:06;;;;;;;8.57;3.93;;;9.10;91.40;;;;;;5054112;28;20445;-76
2021/10/13 00:47:33;;;;;;;4.47;3.70;;;9.20;91.40;;;;;;5054317;28;20834;-76
2021/10/13 00:50:00;;;;;;;4.60;3.57;;;9.20;91.40;;;;;;5053910;28;20445;-76
2021/10/13 00:52:26;;;;;;;5.57;4.00;;;9.20;91.30;;;;;;5053974;28;20441;-75
2021/10/13 00:54:53;;;;;;;6.37;4.07;;;9.20;91.30;;;;;;5053882;28;20461;-76
2021/10/13 00:57:20;;;;;;;6.03;4.03;;;9.10;91.20;;;;;;5054135;28;20446;-76
2021/10/13 00:59:48;;;;;;;8.57;3.90;;;9.10;91.40;;;;;;5053840;28;20449;-76
2021/10/13 01:02:26;;;;;;;5.60;4.60;;;9.10;91.40;;;;;;5053813;28;20456;-76
2021/10/13 01:05:16;;;;;;;9.27;4.00;;;9.10;91.50;;;;;;5053720;28;20470;-76
2021/10/13 01:07:53;;;;;;;6.33;4.03;;;9.10;91.50;;;;;;5053993;28;20437;-76
2021/10/13 01:10:28;;;;;;;9.07;4.67;;;9.10;91.50;;;;;;5053657;28;20461;-76
2021/10/13 01:13:03;;;;;;;8.20;4.73;;;9.10;91.40;;;;;;5053643;28;20487;-75
2021/10/13 01:15:39;;;;;;;9.20;4.40;;;9.10;91.40;;;;;;5053642;28;20430;-76
2021/10/13 01:18:11;;;;;;;9.70;4.63;;;9.10;91.40;;;;;;5053422;28;20791;-75
2021/10/13 01:20:54;;;;;;;8.07;4.97;;;9.00;91.30;;;;;;5053320;28;20426;-76
2021/10/13 01:23:33;;;;;;;8.37;4.30;;;9.00;91.20;;;;;;5053285;28;20983;-76
2021/10/13 01:26:11;;;;;;;12.70;4.40;;;9.00;91.40;;;;;;5053589;28;20433;-76
2021/10/13 01:28:42;;;;;;;8.13;4.60;;;8.90;91.50;;;;;;5053670;28;20433;-75
2021/10/13 01:31:15;;;;;;;10.63;5.00;;;8.90;91.60;;;;;;5052751;28;20473;-76
2021/10/13 01:33:47;;;;;;;6.70;4.70;;;8.90;91.60;;;;;;5053244;28;20480;-76
2021/10/13 01:36:18;;;;;;;6.77;4.53;;;8.90;91.70;;;;;;5053562;28;20449;-75
2021/10/13 01:38:48;;;;;;;10.00;4.73;;;8.90;91.70;;;;;;5053129;28;20830;-75
2021/10/13 01:41:16;;;;;;;6.10;4.67;;;8.90;91.80;;;;;;5053392;28;20449;-76
2021/10/13 01:43:49;;;;;;;8.20;5.00;;;8.90;91.70;;;;;;5052915;28;20998;-76
2021/10/13 01:46:17;;;;;;;9.10;5.23;;;8.90;91.70;;;;;;5053026;28;20918;-75
2021/10/13 01:48:45;;;;;;;8.40;5.20;;;8.90;91.90;;;;;;5053260;28;20444;-76
2021/10/13 01:51:13;;;;;;;5.73;4.47;;;9.00;91.90;;;;;;5052894;28;20991;-75
2021/10/13 01:53:41;;;;;;;10.80;5.47;;;9.00;91.80;;;;;;5053172;28;20457;-75
2021/10/13 01:56:08;;;;;;;12.43;5.50;;;9.00;91.70;;;;;;5054150;28;20448;-76
2021/10/13 01:58:38;;;;;;;13.70;5.20;;;9.00;91.50;;;;;;5054908;28;20441;-75
2021/10/13 02:01:10;;;;;;;7.33;5.07;;;9.00;91.50;;;;;;5053597;28;20437;-75
2021/10/13 02:03:39;;;;;;;8.10;5.10;;;8.90;91.60;;;;;;5052841;28;20967;-75
2021/10/13 02:06:07;;;;;;;11.30;5.90;;;8.80;91.60;;;;;;5053164;28;20438;-75
2021/10/13 02:08:37;;;;;;;7.23;5.30;;;8.80;91.90;;;;;;5053081;28;20475;-75
2021/10/13 02:11:05;;;;;;;9.10;5.30;;;8.70;92.00;;;;;;5053065;28;20473;-75
2021/10/13 02:13:34;;;;;;;7.17;5.70;;;8.70;92.10;;;;;;5053249;28;20469;-75
2021/10/13 02:16:02;;;;;;;8.80;5.43;;;8.70;92.30;;;;;;5052929;28;20454;-76
2021/10/13 02:18:32;;;;;;;9.13;6.07;;;8.60;92.50;;;;;;5053023;28;20454;-76
2021/10/13 02:21:01;;;;;;;9.97;5.53;;;8.60;92.70;;;;;;5053699;28;20445;-76
2021/10/13 02:23:33;;;;;;;13.60;6.77;;;8.70;93.00;;;;;;5052710;28;20484;-76
2021/10/13 02:26:05;;;;;;;13.07;6.83;;;8.70;93.20;;;;;;5052963;28;20438;-75
2021/10/13 02:28:37;;;;;;;14.20;5.50;;;8.70;93.20;;;;;;5052953;28;20436;-75
2021/10/13 02:31:04;;;;;;;14.57;7.07;;;8.70;93.30;;;;;;5052851;28;20463;-76
2021/10/13 02:33:32;;;;;;;12.93;6.00;;;8.70;93.40;;;;;;5052807;28;20464;-76
2021/10/13 02:35:59;;;;;;;8.50;5.50;;;8.70;93.40;;;;;;5052824;28;20459;-76
2021/10/13 02:38:26;;;;;;;8.13;5.40;;;8.80;93.50;;;;;;5052822;28;20449;-76
2021/10/13 02:40:52;;;;;;;10.30;5.50;;;8.80;93.50;;;;;;5052810;28;20814;-76
2021/10/13 02:43:19;;;;;;;14.40;6.67;;;8.80;93.50;;;;;;5055465;28;20462;-76
2021/10/13 02:45:54;;;;;;;16.10;6.27;;;8.80;93.50;;;;;;5056415;28;20452;-75
2021/10/13 02:48:25;;;;;;;13.33;5.87;;;8.80;93.50;;;;;;5056378;28;20430;-76
2021/10/13 02:50:59;;;;;;;8.80;6.23;;;8.80;93.60;;;;;;5056310;28;20475;-76
2021/10/13 02:53:35;;;;;;;10.53;6.07;;;8.80;93.60;;;;;;5056268;28;20472;-76
2021/10/13 02:56:12;;;;;;;7.80;5.30;;;8.80;93.80;;;;;;5056243;28;20579;-74
2021/10/13 02:58:42;;;;;;;10.70;5.70;;;8.90;93.70;;;;;;5056243;28;20433;-76
2021/10/13 03:01:13;;;;;;;11.93;6.30;;;8.80;93.70;;;;;;5055851;28;20452;-76
2021/10/13 03:03:46;;;;;;;7.70;5.83;;;8.90;93.80;;;;;;5056061;28;20496;-76
2021/10/13 03:06:14;;;;;;;13.43;6.70;;;8.90;93.90;;;;;;5056101;28;20433;-75
2021/10/13 03:08:46;;;;;;;9.73;6.73;;;8.90;93.80;;;;;;5056020;28;20816;-75
2021/10/13 03:11:14;;;;;;;10.67;6.77;;;8.90;93.90;;;;;;5056815;28;20488;-75
2021/10/13 03:13:46;;;;;;;11.00;6.53;;;8.90;93.90;;;;;;5055849;28;20469;-76
2021/10/13 03:16:13;;;;;;;7.37;5.67;;;8.90;94.00;;;;;;5055603;28;20426;-75
2021/10/13 03:18:42;;;;;;;7.30;6.60;;;8.90;94.10;;;;;;5055469;28;20461;-76
2021/10/13 03:21:10;;;;;;;7.73;6.90;;;8.90;94.20;;;;;;5055788;28;20445;-76
2021/10/13 03:23:38;;;;;;;9.33;6.43;;;8.90;94.10;;;;;;5055228;28;20849;-76
2021/10/13 03:26:06;;;;;;;9.50;6.30;;;8.90;94.10;;;;;;5055726;28;20453;-76
2021/10/13 03:28:33;;;;;;;8.73;6.50;;;8.90;94.30;;;;;;5055592;28;20453;-76
2021/10/13 03:31:00;;;;;;;9.27;6.30;;;8.90;94.40;;;;;;5055526;28;20534;-76
2021/10/13 03:33:27;;;;;;;11.30;6.53;;;8.90;94.40;;;;;;5055475;28;20476;-76
2021/10/13 03:35:54;;;;;;;7.70;6.50;;;8.90;94.50;;;;;;5055593;28;20451;-76
2021/10/13 03:38:21;;;;;;;8.20;6.87;;;8.90;94.40;;;;;;5055558;28;20812;-76
2021/10/13 03:40:50;;;;;;;7.60;6.80;;;8.90;94.40;;;;;;5055206;28;20874;-76
2021/10/13 03:43:17;;;;;;;10.60;5.90;;;8.90;94.40;;;;;;5055295;28;20472;-76
2021/10/13 03:45:44;;;;;;;10.50;6.70;;;8.90;94.40;;;;;;5055003;28;20939;-76
2021/10/13 03:48:11;;;;;;;10.27;6.53;;;8.90;94.30;;;;;;5055299;28;20448;-76
2021/10/13 03:50:38;;;;;;;10.73;6.27;;;8.90;94.30;;;;;;5055213;28;20453;-76
2021/10/13 03:53:05;;;;;;;11.23;6.30;;;8.90;94.20;;;;;;5054820;28;20493;-76
2021/10/13 03:55:31;;;;;;;9.27;5.90;;;8.80;94.20;;;;;;5054304;28;20860;-76
2021/10/13 03:58:00;;;;;;;8.93;6.23;;;8.90;94.20;;;;;;5055123;28;20451;-76
2021/10/13 04:00:27;;;;;;;10.20;6.63;;;8.90;94.20;;;;;;5054768;28;20945;-75
2021/10/13 04:02:54;;;;;;;10.50;6.13;;;8.90;94.20;;;;;;5054935;28;20448;-75
2021/10/13 04:05:20;;;;;;;9.83;6.90;;;8.90;94.10;;;;;;5055010;28;20445;-75
2021/10/13 04:07:47;;;;;;;7.40;5.83;;;8.90;94.00;;;;;;5054596;28;20962;-75
2021/10/13 04:10:15;;;;;;;13.27;6.53;;;8.90;94.00;;;;;;5055123;28;20433;-75
2021/10/13 04:12:43;;;;;;;12.80;6.10;;;8.90;93.90;;;;;;5054831;28;20519;-75
2021/10/13 04:15:12;;;;;;;10.77;6.50;;;8.90;93.90;;;;;;5054725;28;20447;-75
2021/10/13 04:17:39;;;;;;;8.13;6.17;;;8.90;93.70;;;;;;5054717;28;20448;-75
2021/10/13 04:20:08;;;;;;;8.03;6.50;;;8.80;93.80;;;;;;5054440;28;20923;-75
2021/10/13 04:22:35;;;;;;;17.90;6.73;;;8.80;93.80;;;;;;5054353;28;20460;-75
2021/10/13 04:25:02;;;;;;;8.33;6.37;;;8.70;93.80;;;;;;5054541;28;20819;-75
2021/10/13 04:27:29;;;;;;;12.27;6.57;;;8.80;93.80;;;;;;5054429;28;20452;-75
2021/10/13 04:29:56;;;;;;;7.40;6.13;;;8.80;93.90;;;;;;5054120;28;20853;-75
2021/10/13 04:32:24;;;;;;;12.77;6.57;;;8.80;93.80;;;;;;5054300;28;20484;-75
2021/10/13 04:34:51;;;;;;;7.83;5.63;;;8.70;93.70;;;;;;5054191;28;20491;-75
2021/10/13 04:37:18;;;;;;;9.17;6.87;;;8.70;93.70;;;;;;5054314;28;20432;-75
2021/10/13 04:39:45;;;;;;;7.00;5.83;;;8.70;93.50;;;;;;5054315;28;20445;-75
2021/10/13 04:42:12;;;;;;;8.97;5.90;;;8.70;93.60;;;;;;5054203;28;20456;-75
2021/10/13 04:44:38;;;;;;;9.00;5.60;;;8.70;93.60;;;;;;5054204;28;20472;-75
2021/10/13 04:47:06;;;;;;;8.50;5.47;;;8.70;93.70;;;;;;5053793;28;20483;-75
2021/10/13 04:49:34;;;;;;;8.67;6.27;;;8.60;93.80;;;;;;5054090;28;20455;-75
2021/10/13 04:52:01;;;;;;;11.37;5.77;;;8.60;93.90;;;;;;5053961;28;20492;-76
2021/10/13 04:54:27;;;;;;;8.63;6.40;;;8.60;94.00;;;;;;5054010;28;20466;-76
2021/10/13 04:56:54;;;;;;;9.23;6.60;;;8.60;94.00;;;;;;5053689;28;20914;-75
2021/10/13 04:59:21;;;;;;;12.83;7.00;;;8.60;93.70;;;;;;5053628;28;20437;-75
2021/10/13 05:01:48;;;;;;;11.37;7.53;;;8.60;93.80;;;;;;5053853;28;20438;-75
2021/10/13 05:04:14;;;;;;;8.67;6.00;;;8.60;93.90;;;;;;5053716;28;20466;-76
2021/10/13 05:06:43;;;;;;;10.23;6.20;;;8.60;93.90;;;;;;5052823;28;20446;-76
2021/10/13 05:09:10;;;;;;;11.10;5.60;;;8.60;94.00;;;;;;5053806;28;20477;-75
2021/10/13 05:11:37;;;;;;;7.40;6.07;;;8.70;94.10;;;;;;5053677;28;20531;-76
2021/10/13 05:14:03;;;;;;;7.70;5.87;;;8.70;93.90;;;;;;5053619;28;20473;-76
2021/10/13 05:16:30;;;;;;;11.97;5.30;;;8.70;93.80;;;;;;5053728;28;20551;-75
2021/10/13 05:18:57;;;;;;;9.50;6.03;;;8.70;93.60;;;;;;5054265;28;20426;-75
2021/10/13 05:21:24;;;;;;;11.07;6.70;;;8.70;93.40;;;;;;5053540;28;20924;-75
2021/10/13 05:23:52;;;;;;;8.27;5.50;;;8.70;93.30;;;;;;5053236;28;20481;-75
2021/10/13 05:26:18;;;;;;;10.90;5.63;;;8.80;93.40;;;;;;5053563;28;20445;-75
2021/10/13 05:28:45;;;;;;;14.50;6.53;;;8.80;93.40;;;;;;5053486;28;20441;-75
2021/10/13 05:31:12;;;;;;;9.40;6.10;;;8.80;93.40;;;;;;5053383;28;20453;-75
2021/10/13 05:33:39;;;;;;;6.27;4.83;;;8.80;93.50;;;;;;5053366;28;20468;-73
2021/10/13 05:36:05;;;;;;;11.47;5.63;;;8.80;93.40;;;;;;5053304;28;20445;-74
2021/10/13 05:38:32;;;;;;;12.40;5.67;;;8.80;93.20;;;;;;5053238;28;20456;-74
2021/10/13 05:41:00;;;;;;;10.20;5.70;;;8.80;93.00;;;;;;5053353;28;20453;-74
2021/10/13 05:43:27;;;;;;;8.70;6.90;;;8.80;93.00;;;;;;5052924;28;21029;-74
2021/10/13 05:45:55;;;;;;;7.03;6.03;;;8.80;93.00;;;;;;5053353;28;20446;-74
2021/10/13 05:48:22;;;;;;;8.30;5.03;;;8.80;93.00;;;;;;5053273;28;20441;-74
2021/10/13 05:50:49;;;;;;;12.13;6.47;;;8.80;92.70;;;;;;5053264;28;20445;-74
2021/10/13 05:53:15;;;;;;;7.10;5.60;;;8.80;92.60;;;;;;5053146;28;20495;-74
2021/10/13 05:55:42;;;;;;;8.10;6.43;;;8.80;92.60;;;;;;5053238;28;20853;-74
2021/10/13 05:58:10;;;;;;;12.03;6.50;;;8.80;92.60;;;;;;5053198;28;20456;-74
2021/10/13 06:00:37;;;;;;;12.87;7.33;;;8.80;92.80;;;;;;5053170;28;20454;-73
2021/10/13 06:03:04;;;;;;;9.27;6.50;;;8.90;93.00;;;;;;5053179;28;20481;-74
2021/10/13 06:05:31;;;;;;;15.27;7.50;;;8.90;93.20;;;;;;5052781;28;20942;-74
2021/10/13 06:07:58;;;;;;;9.73;7.43;;;8.80;93.30;;;;;;5053086;28;20472;-74
2021/10/13 06:10:24;;;;;;;8.87;7.83;;;8.90;93.60;;;;;;5053045;28;20777;-74
2021/10/13 06:12:51;;;;;;;13.60;7.60;;;8.90;93.80;;;;;;5052872;28;20481;-74
2021/10/13 06:15:20;;;;;;;10.60;7.47;;;8.90;93.90;;;;;;5053050;28;20453;-74
2021/10/13 06:17:47;;;;;;;14.77;8.37;;;9.00;93.90;;;;;;5055049;28;20451;-74
2021/10/13 06:20:14;;;;;;;14.10;8.07;;;8.90;93.90;;;;;;5056974;28;20441;-74
2021/10/13 06:22:41;;;;;;;14.80;8.07;;;8.90;94.00;;;;;;5056672;28;20458;-74
2021/10/13 06:25:08;;;;;;;15.20;7.70;;;9.00;94.20;;;;;;5056752;28;20441;-74
2021/10/13 06:27:35;;;;;;;11.30;7.87;;;9.00;94.30;;;;;;5056847;28;20512;-74
2021/10/13 06:30:02;;;;;;;11.57;7.80;;;9.00;94.40;;;;;;5057301;28;20437;-74
2021/10/13 06:32:30;;;;;;;11.63;7.87;;;9.00;94.40;;;;;;5056554;28;20617;-74
2021/10/13 06:34:56;;;;;;;11.83;8.17;;;9.00;94.40;;;;;;5057839;28;20476;-74
2021/10/13 06:37:23;;;;;;;11.63;8.37;;;9.10;94.50;;;;;;5056230;28;20499;-74
2021/10/13 06:39:51;;;;;;;10.13;8.07;;;9.10;94.60;;;;;;5056515;28;20452;-74
2021/10/13 06:42:17;;;;;;;9.30;7.50;;;9.10;94.70;;;;;;5056136;28;20441;-74
2021/10/13 06:44:44;;;;;;;10.23;7.50;;;9.20;94.90;;;;;;5056365;28;20846;-74
2021/10/13 06:47:11;;;;;;;9.10;8.10;;;9.20;94.80;;;;;;5056441;28;20472;-74
2021/10/13 06:49:39;;;;;;;13.70;9.00;;;9.30;94.90;;;;;;5056387;28;20445;-74
2021/10/13 06:52:05;;;;;;;11.97;8.70;;;9.30;94.70;;;;;;5056193;28;20488;-74
2021/10/13 06:54:32;;;;;;;9.77;8.17;;;9.40;94.90;;;;;;5056315;28;20473;-74
2021/10/13 06:56:59;;;;;;;9.07;7.93;;;9.50;94.90;;;;;;5056208;28;20449;-74
2021/10/13 06:59:25;;;;;;;15.30;9.00;;;9.60;95.10;;;;;;5056162;28;20453;-74
2021/10/13 07:01:52;;;;;;;12.67;9.87;;;9.60;95.00;;;;;;5056065;28;20459;-74
2021/10/13 07:04:19;;;;;;;13.23;8.77;;;9.70;95.10;;;;;;5056076;28;20489;-74
2021/10/13 07:06:47;;;;;;;9.20;7.90;;;9.80;95.10;;;;;;5056003;28;20453;-74
2021/10/13 07:09:14;;;;;;;13.40;9.90;;;9.90;95.10;;;;;;5055965;28;20445;-74
2021/10/13 07:11:40;;;;;;;13.43;9.47;;;10.00;94.50;;;;;;5055923;28;20449;-74
2021/10/13 07:14:09;;;;;;;9.50;8.40;;;10.10;94.40;;;;;;5055545;28;20486;-74
2021/10/13 07:16:36;;;;;;;12.40;7.87;;;10.20;94.30;;;;;;5055963;28;20437;-74
2021/10/13 07:19:03;;;;;;;13.70;8.07;;;10.30;94.60;;;;;;5055979;28;20430;-74
2021/10/13 07:21:29;;;;;;;11.00;8.07;;;10.30;94.00;;;;;;5055574;28;20809;-74
2021/10/13 07:23:57;;;;;;;15.00;8.90;;;10.30;93.80;;;;;;5056077;28;20484;-74
2021/10/13 07:26:24;;;;;;;13.93;8.20;;;10.40;93.50;;;;;;5055632;28;20445;-74
2021/10/13 07:28:51;;;;;;;15.43;8.17;;;10.40;93.40;;;;;;5054193;28;20810;-74
2021/10/13 07:31:18;;;;;;;8.97;7.90;;;10.50;93.50;;;;;;5055698;28;20496;-75
2021/10/13 07:33:45;;;;;;;13.90;8.20;;;10.50;93.30;;;;;;5055822;28;20489;-75
2021/10/13 07:36:12;;;;;;;12.40;8.43;;;10.50;93.40;;;;;;5055419;28;20458;-74
2021/10/13 07:38:39;;;;;;;11.67;9.57;;;10.60;93.60;;;;;;5055402;28;20453;-74
2021/10/13 07:41:07;;;;;;;15.13;9.63;;;10.70;93.70;;;;;;5055341;28;20453;-74
2021/10/13 07:43:35;;;;;;;16.00;9.30;;;10.70;93.60;;;;;;5055300;28;20500;-74
2021/10/13 07:46:01;;;;;;;12.90;9.00;;;10.80;93.30;;;;;;5055272;28;20454;-75
2021/10/13 07:48:28;;;;;;;13.70;9.57;;;10.80;93.10;;;;;;5055498;28;20426;-74
2021/10/13 07:50:56;;;;;;;10.17;9.17;;;10.80;93.20;;;;;;5055218;28;20453;-74
2021/10/13 07:53:23;;;;;;;11.40;8.73;;;10.90;93.40;;;;;;5054794;28;20837;-75
2021/10/13 07:55:50;;;;;;;16.17;9.63;;;10.90;93.50;;;;;;5055185;28;20425;-74
2021/10/13 07:58:18;;;;;;;8.90;7.97;;;11.10;93.60;;;;;;5055029;28;20449;-74
2021/10/13 08:00:44;;;;;;;13.17;8.97;;;11.20;93.40;;;;;;5054982;28;20483;-75
2021/10/13 08:03:11;;;;;;;11.63;8.30;;;11.20;93.10;;;;;;5055158;28;20466;-75
2021/10/13 08:05:38;;;;;;;13.30;8.87;;;11.30;93.10;;;;;;5054666;28;20463;-75
2021/10/13 08:08:05;;;;;;;11.03;7.00;;;11.40;93.40;;;;;;5055664;28;20449;-75
2021/10/13 08:10:32;;;;;;;7.83;6.70;;;11.50;92.70;;;;;;5054578;28;20445;-75
2021/10/13 08:12:59;;;;;;;9.30;6.87;;;11.50;92.80;;;;;;5054630;28;20493;-75
2021/10/13 08:15:27;;;;;;;7.80;6.93;;;11.60;92.70;;;;;;5054723;28;20484;-75
2021/10/13 08:17:55;;;;;;;11.83;7.27;;;11.70;92.50;;;;;;5054613;28;20445;-75
2021/10/13 08:20:21;;;;;;;11.70;6.83;;;11.70;92.20;;;;;;5054568;28;20450;-75
2021/10/13 08:22:49;;;;;;;12.27;6.47;;;11.70;92.30;;;;;;5054302;28;20963;-75
2021/10/13 08:25:16;;;;;;;9.37;6.57;;;11.80;92.40;;;;;;5054587;28;20528;-75
2021/10/13 08:27:43;;;;;;;9.30;6.50;;;11.90;92.50;;;;;;5054428;28;20472;-75
2021/10/13 08:30:10;;;;;;;10.60;6.67;;;12.00;92.80;;;;;;5054145;28;20935;-75
2021/10/13 08:32:39;;;;;;;11.60;7.30;;;12.10;92.40;;;;;;5054031;28;20481;-75
2021/10/13 08:35:07;;;;;;;10.47;7.50;;;12.10;92.10;;;;;;5055168;28;20493;-75
2021/10/13 08:37:34;;;;;;;8.70;6.80;;;12.10;92.20;;;;;;5054053;28;20426;-75
2021/10/13 08:40:00;;;;;;;12.17;6.73;;;12.20;91.80;;;;;;5054064;28;20479;-75
2021/10/13 08:42:28;;;;;;;7.90;6.57;;;12.30;91.70;;;;;;5054172;28;20430;-75
2021/10/13 08:44:55;;;;;;;14.80;7.43;;;12.40;91.90;;;;;;5054156;28;20548;-75
2021/10/13 08:47:22;;;;;;;11.77;6.30;;;12.50;91.80;;;;;;5054110;28;20442;-75
2021/10/13 08:49:53;;;;;;;7.47;6.40;;;12.60;91.70;;;;;;5054323;28;20449;-75
2021/10/13 08:52:19;;;;;;;9.73;7.00;;;12.70;91.40;;;;;;5054061;28;20802;-75
2021/10/13 08:54:46;;;;;;;12.20;6.53;;;12.70;90.90;;;;;;5054036;28;20469;-75
2021/10/13 08:57:20;;;;;;;9.83;6.70;;;12.70;90.90;;;;;;5053656;28;20936;-75
2021/10/13 08:59:48;;;;;;;10.90;6.37;;;12.80;90.70;;;;;;5053909;28;20434;-75
2021/10/13 09:02:17;;;;;;;9.13;6.00;;;12.90;90.70;;;;;;5054163;28;20430;-75
2021/10/13 09:05:07;;;;;;;15.77;7.03;;;12.90;90.50;;;;;;5053782;28;20457;-75
2021/10/13 09:07:34;;;;;;;9.77;6.80;;;13.00;90.30;;;;;;5054665;28;20782;-75
2021/10/13 09:10:01;;;;;;;8.27;6.33;;;13.10;90.10;;;;;;5053766;28;20430;-75
2021/10/13 09:12:32;;;;;;;7.97;5.87;;;13.10;90.10;;;;;;5053393;28;20900;-74
2021/10/13 09:15:08;;;;;;;8.23;5.50;;;13.20;90.00;;;;;;5053658;28;20983;-75
2021/10/13 09:17:50;;;;;;;11.20;5.90;;;13.20;89.80;;;;;;5054200;28;20433;-75
2021/10/13 09:20:19;;;;;;;8.47;5.83;;;13.20;90.00;;;;;;5053717;28;20836;-76
2021/10/13 09:22:56;;;;;;;7.40;5.70;;;13.20;90.00;;;;;;5053246;28;20814;-76
2021/10/13 09:25:23;;;;;;;10.57;6.57;;;13.20;90.20;;;;;;5053706;28;20885;-76
2021/10/13 09:27:50;;;;;;;8.60;5.40;;;13.30;90.70;;;;;;5053694;28;20432;-76
2021/10/13 09:30:26;;;;;;;11.90;5.10;;;13.50;90.40;;;;;;5054391;28;20430;-76
2021/10/13 09:32:53;;;;;;;5.60;5.00;;;13.70;90.20;;;;;;5053503;28;20476;-76
2021/10/13 09:35:29;;;;;;;10.20;5.17;;;14.00;90.00;;;;;;5053273;28;20911;-76
2021/10/13 09:37:56;;;;;;;9.27;5.20;;;14.20;88.00;;;;;;5053133;28;20926;-77
2021/10/13 09:40:27;;;;;;;6.03;4.50;;;14.40;86.90;;;;;;5053433;28;20449;-76
2021/10/13 09:42:58;;;;;;;7.20;4.87;;;14.50;85.00;;;;;;5053331;28;20430;-76
2021/10/13 09:45:26;;;;;;;6.73;3.70;;;14.50;84.90;;;;;;5053010;28;20923;-77
2021/10/13 09:47:58;;;;;;;5.33;4.17;;;14.50;83.30;;;;;;5053005;28;20977;-76
2021/10/13 09:50:39;;;;;;;10.00;4.40;;;14.50;84.10;;;;;;5053881;28;20434;-76
2021/10/13 09:53:22;;;;;;;9.07;4.40;;;14.50;84.50;;;;;;5055534;28;21003;-76
2021/10/13 09:55:50;;;;;;;4.83;3.90;;;14.60;85.20;;;;;;5057310;28;20817;-76
2021/10/13 09:58:30;;;;;;;8.37;4.97;;;14.70;86.10;;;;;;5057367;28;20457;-76
2021/10/13 10:01:09;;;;;;;8.73;4.50;;;14.80;84.50;;;;;;5057048;28;20946;-76
2021/10/13 10:03:36;;;;;;;7.70;4.90;;;15.00;82.90;;;;;;5057129;28;20875;-76
2021/10/13 10:06:05;;;;;;;9.90;4.87;;;15.20;82.20;;;;;;5057173;28;20421;-76
2021/10/13 10:08:59;;;;;;;5.30;4.00;;;15.60;82.60;;;;;;5057103;28;20945;-76
2021/10/13 10:11:31;;;;;;;6.70;4.30;;;16.10;79.70;;;;;;5057108;28;20461;-76
2021/10/13 10:13:58;;;;;;;5.20;3.40;;;16.60;78.60;;;;;;5056886;28;20901;-76
2021/10/13 10:16:30;;;;;;;4.30;3.67;;;16.80;74.00;;;;;;5056973;28;20460;-76
2021/10/13 10:19:18;;;;;;;7.17;3.70;;;17.00;73.90;;;;;;5056905;28;20445;-76
2021/10/13 10:21:54;;;;;;;5.23;3.53;;;17.30;73.10;;;;;;5056958;28;20425;-76
2021/10/13 10:24:27;;;;;;;6.80;3.27;;;17.40;70.70;;;;;;5056827;28;20480;-76
2021/10/13 10:27:19;;;;;;;7.00;4.30;;;17.70;70.90;;;;;;5057527;28;20509;-76
2021/10/13 10:29:48;;;;;;;6.40;3.63;;;18.00;69.70;;;;;;5057115;28;20525;-77
2021/10/13 10:32:16;;;;;;;6.80;3.80;;;18.10;68.80;;;;;;5057168;28;20448;-76
2021/10/13 10:35:11;;;;;;;8.63;4.50;;;18.00;67.50;;;;;;5058446;28;20485;-77
2021/10/13 10:37:40;;;;;;;8.37;3.90;;;18.00;68.40;;;;;;5056835;28;20771;-75
2021/10/13 10:40:10;;;;;;;4.17;3.27;;;18.10;67.40;;;;;;5056532;28;20461;-75
2021/10/13 10:42:56;;;;;;;7.33;4.53;;;18.30;65.60;;;;;;5056550;28;20512;-75
2021/10/13 10:45:25;;;;;;;6.40;3.20;;;18.50;64.90;;;;;;5056845;28;20535;-76
2021/10/13 10:47:54;;;;;;;4.80;3.20;;;18.50;65.70;;;;;;5056572;28;20437;-76
2021/10/13 10:50:37;;;;;;;4.50;2.90;;;18.20;66.00;;;;;;5056378;28;20440;-75
2021/10/13 10:53:30;;;;;;;6.30;3.17;;;17.80;66.80;;;;;;5056195;28;20470;-75
2021/10/13 10:56:17;;;;;;;5.13;3.37;;;17.40;68.30;;;;;;5055925;28;20449;-75
2021/10/13 10:59:03;;;;;;;5.70;3.77;;;17.10;70.80;;;;;;5055951;28;20437;-75
2021/10/13 11:01:30;;;;;;;7.97;3.90;;;16.80;73.00;;;;;;5056200;28;20434;-74
2021/10/13 11:03:57;;;;;;;9.10;4.00;;;16.60;74.00;;;;;;5055959;28;20464;-75
2021/10/13 11:06:26;;;;;;;12.90;3.87;;;16.50;74.60;;;;;;5056429;28;20483;-75
2021/10/13 11:09:06;;;;;;;6.63;4.10;;;16.60;75.70;;;;;;5056191;28;20495;-74
2021/10/13 11:11:35;;;;;;;8.83;4.13;;;16.90;74.50;;;;;;5056380;28;20433;-75
2021/10/13 11:14:05;;;;;;;5.80;3.83;;;17.10;73.50;;;;;;5057452;28;20489;-76
2021/10/13 11:16:34;;;;;;;8.70;3.80;;;17.70;72.80;;;;;;5055636;28;20900;-76
2021/10/13 11:19:12;;;;;;;5.90;3.47;;;18.40;70.00;;;;;;5056125;28;20476;-75
2021/10/13 11:21:40;;;;;;;8.00;3.30;;;19.00;66.20;;;;;;5056180;28;20450;-76
2021/10/13 11:24:08;;;;;;;5.10;3.43;;;19.60;62.10;;;;;;5055809;28;20465;-76
2021/10/13 11:26:35;;;;;;;4.40;3.10;;;20.00;60.30;;;;;;5055836;28;20456;-76
2021/10/13 11:29:02;;;;;;;6.57;3.63;;;20.50;58.10;;;;;;5055893;28;20437;-76
2021/10/13 11:31:29;;;;;;;4.37;2.70;;;20.30;57.60;;;;;;5055665;28;20449;-76
2021/10/13 11:34:07;;;;;;;3.30;2.50;;;19.70;58.50;;;;;;5055509;28;20490;-76
2021/10/13 11:36:46;;;;;;;5.27;2.40;;;18.90;60.90;;;;;;5055544;28;20446;-76
2021/10/13 11:39:20;;;;;;;3.50;2.07;;;18.10;62.10;;;;;;5055582;28;20433;-76
2021/10/13 11:41:47;;;;;;;6.73;2.57;;;17.50;64.40;;;;;;5055842;28;20429;-76
2021/10/13 11:44:17;;;;;;;5.20;3.10;;;17.10;67.30;;;;;;5055061;28;20975;-76
2021/10/13 11:46:57;;;;;;;6.47;3.70;;;16.80;70.20;;;;;;5055311;28;20452;-76
2021/10/13 11:49:24;;;;;;;4.60;2.97;;;16.50;72.10;;;;;;5055406;28;20426;-76
2021/10/13 11:52:08;;;;;;;9.77;3.10;;;16.50;72.90;;;;;;5055456;28;20456;-76
2021/10/13 11:54:36;;;;;;;5.67;2.80;;;16.80;72.50;;;;;;5055223;28;20485;-76
2021/10/13 11:57:04;;;;;;;5.37;2.63;;;17.50;71.20;;;;;;5055196;28;20457;-76
2021/10/13 11:59:30;;;;;;;5.67;2.20;;;18.30;67.60;;;;;;5055468;28;20480;-76
2021/10/13 12:02:10;;;;;;;8.00;2.50;;;19.20;62.60;;;;;;5055346;28;20448;-76
2021/10/13 12:04:49;;;;;;;5.50;2.87;;;20.00;58.70;;;;;;5055188;28;20473;-76
2021/10/13 12:07:17;;;;;;;5.70;3.17;;;20.50;57.10;;;;;;5054680;28;20900;-76
2021/10/13 12:09:48;;;;;;;8.63;3.00;;;20.90;56.90;;;;;;5055093;28;20952;-76
2021/10/13 12:12:15;;;;;;;8.10;3.80;;;21.50;55.30;;;;;;5055446;28;20456;-76
2021/10/13 12:14:42;;;;;;;4.10;3.67;;;22.10;53.70;;;;;;5055101;28;20497;-76
2021/10/13 12:17:23;;;;;;;8.23;3.60;;;22.50;52.40;;;;;;5055037;28;20449;-76
2021/10/13 12:19:50;;;;;;;5.40;2.93;;;22.90;50.10;;;;;;5055075;28;20434;-76
2021/10/13 12:22:17;;;;;;;4.50;3.17;;;23.20;49.20;;;;;;5054682;28;20465;-76
2021/10/13 12:24:44;;;;;;;5.20;2.80;;;23.40;48.60;;;;;;5054593;28;20465;-76
2021/10/13 12:27:12;;;;;;;2.77;2.07;;;23.70;47.80;;;;;;5054625;28;20430;-76
2021/10/13 12:29:40;;;;;;;4.93;1.83;;;23.90;47.20;;;;;;5054790;28;20453;-76
2021/10/13 12:32:17;;;;;;;3.27;1.70;;;23.60;45.10;;;;;;5054850;28;20430;-77
2021/10/13 12:34:44;;;;;;;3.27;1.40;;;23.70;46.30;;;;;;5054358;28;20845;-77
2021/10/13 12:37:10;;;;;;;6.00;1.67;;;23.40;44.80;;;;;;5054399;28;20467;-77
2021/10/13 12:39:37;;;;;;;6.23;1.30;;;23.30;46.10;;;;;;5054333;28;20441;-77
2021/10/13 12:42:06;;;;;;;13.63;2.23;;;23.40;45.20;;;;;;5054246;28;20449;-77
2021/10/13 12:44:34;;;;;;;2.37;1.20;;;23.10;42.80;;;;;;5054496;28;20469;-77
2021/10/13 12:47:05;;;;;;;4.80;1.50;;;23.20;44.70;;;;;;5054388;28;20456;-75
2021/10/13 12:49:34;;;;;;;6.00;2.10;;;23.50;44.00;;;;;;5054359;28;20444;-75
2021/10/13 12:52:05;;;;;;;2.97;1.60;;;23.90;43.80;;;;;;5054185;28;20471;-75
2021/10/13 12:54:33;;;;;;;4.80;2.20;;;24.00;42.70;;;;;;5053957;28;20489;-75
2021/10/13 12:57:00;;;;;;;2.93;1.40;;;24.50;43.50;;;;;;5053793;28;20908;-75
2021/10/13 12:59:28;;;;;;;5.30;1.93;;;24.60;42.10;;;;;;5053820;28;20904;-76